Time;durP1;ratioP1;P1;durP2;ratioP2;P2;SDS_P1;SDS_P2;PMS_P1;PMS_P2;Temp;Humidity;BMP_temperature;BMP_pressure;BME280_temperature;BME280_humidity;BME280_pressure;Samples;Min_cycle;Max_cycle;Signal;HPM_P1;HPM_P2
2022/01/09 00:00:27;;;;;;;17.05;11.85;;;;;;;-0.59;63.70;98213.38;5087982;28;20086;-66
2022/01/09 00:02:59;;;;;;;23.63;12.35;;;;;;;-0.60;63.22;98211.66;5088184;28;20044;-66
2022/01/09 00:05:32;;;;;;;16.42;10.80;;;;;;;-0.56;63.11;98202.88;5088070;28;20078;-66
2022/01/09 00:08:05;;;;;;;16.10;11.98;;;;;;;-1.24;62.89;98080.81;5087862;28;20040;-66
2022/01/09 00:10:37;;;;;;;17.55;11.13;;;;;;;-0.56;63.21;98191.59;5087803;28;20304;-66
2022/01/09 00:13:10;;;;;;;14.45;10.48;;;;;;;-0.82;62.96;98153.31;5086599;28;20045;-66
2022/01/09 00:15:43;;;;;;;14.88;10.02;;;;;;;-0.68;63.38;98172.84;5086844;28;20083;-66
2022/01/09 00:18:15;;;;;;;17.85;11.43;;;;;;;-0.68;63.50;98172.84;5087578;28;20044;-67
2022/01/09 00:20:47;;;;;;;17.00;11.20;;;;;;;-0.77;64.65;98172.25;5087904;28;20040;-66
2022/01/09 00:23:20;;;;;;;13.48;9.85;;;;;;;-0.78;63.58;98178.34;5087521;28;20044;-66
2022/01/09 00:25:52;;;;;;;17.58;11.68;;;;;;;-0.78;63.39;98171.41;5087493;28;20300;-65
2022/01/09 00:28:25;;;;;;;17.45;11.07;;;;;;;-0.77;63.49;98169.66;5087406;28;20051;-66
2022/01/09 00:30:58;;;;;;;14.25;11.45;;;;;;;-0.84;63.68;98166.38;5087394;28;20086;-66
2022/01/09 00:33:30;;;;;;;16.88;12.20;;;;;;;-0.84;63.42;98162.94;5087301;28;20041;-67
2022/01/09 00:36:02;;;;;;;17.60;12.20;;;;;;;-1.54;63.75;98079.91;5087440;28;20049;-67
2022/01/09 00:38:34;;;;;;;18.13;11.70;;;;;;;-1.70;63.79;98008.47;5087167;28;20174;-66
2022/01/09 00:41:06;;;;;;;15.30;12.10;;;;;;;-0.90;63.53;98143.13;5087165;28;20044;-65
2022/01/09 00:43:40;;;;;;;16.88;12.13;;;;;;;-0.87;63.20;98145.66;5087142;28;20040;-66
2022/01/09 00:46:12;;;;;;;18.70;13.15;;;;;;;-0.88;63.41;98140.50;5087248;28;20323;-66
2022/01/09 00:48:44;;;;;;;15.95;11.82;;;;;;;-0.92;63.34;98147.53;5087026;28;20089;-65
2022/01/09 00:51:16;;;;;;;15.98;12.30;;;;;;;-0.93;63.71;98140.63;5087209;28;20040;-65
2022/01/09 00:53:49;;;;;;;16.05;11.63;;;;;;;-0.92;63.16;98134.53;5086763;28;20056;-65
2022/01/09 00:56:21;;;;;;;15.02;10.55;;;;;;;-0.93;63.45;98130.22;5087101;28;20048;-65
2022/01/09 00:58:55;;;;;;;15.82;9.98;;;;;;;-0.94;63.31;98133.72;5086799;28;20040;-65
2022/01/09 01:01:27;;;;;;;14.88;10.18;;;;;;;-0.94;63.25;98120.72;5086768;28;20041;-65
2022/01/09 01:03:59;;;;;;;15.48;11.07;;;;;;;-1.37;63.28;98050.84;5086665;28;20044;-65
2022/01/09 01:06:31;;;;;;;15.63;11.52;;;;;;;-0.97;63.45;98120.81;5086637;28;20040;-65
2022/01/09 01:09:03;;;;;;;14.73;10.43;;;;;;;-0.97;63.48;98109.56;5086800;28;20056;-66
2022/01/09 01:11:35;;;;;;;17.42;12.60;;;;;;;-0.97;62.86;98118.19;5086493;28;20293;-66
2022/01/09 01:14:07;;;;;;;18.75;11.25;;;;;;;-0.98;63.15;98100.91;5086513;28;20248;-65
2022/01/09 01:16:36;;;;;;;16.13;10.98;;;;;;;-1.04;63.24;98094.09;5086734;28;20037;-66
2022/01/09 01:19:06;;;;;;;13.52;10.07;;;;;;;-1.06;63.29;98092.44;5086404;28;20047;-66
2022/01/09 01:21:36;;;;;;;16.77;11.55;;;;;;;-1.06;63.09;98085.47;5086622;28;20040;-66
2022/01/09 01:24:07;;;;;;;16.67;11.40;;;;;;;-1.03;62.74;98081.94;5086379;28;20192;-65
2022/01/09 01:26:37;;;;;;;18.77;12.20;;;;;;;-1.04;62.86;98077.63;5086252;28;20040;-65
2022/01/09 01:29:10;;;;;;;14.80;11.00;;;;;;;-1.04;62.81;98081.09;5086452;28;20040;-65
2022/01/09 01:31:37;;;;;;;16.98;11.00;;;;;;;-1.09;63.07;98062.16;5086486;28;20052;-65
2022/01/09 01:34:08;;;;;;;15.35;11.45;;;;;;;-1.11;63.00;98063.09;5086346;28;20339;-65
2022/01/09 01:36:38;;;;;;;17.30;11.55;;;;;;;-1.21;62.95;98061.66;5086136;28;20037;-66
2022/01/09 01:39:08;;;;;;;13.73;9.88;;;;;;;-1.79;63.16;97959.38;5086026;28;20082;-66
2022/01/09 01:41:39;;;;;;;12.93;9.55;;;;;;;-1.28;63.07;98052.34;5086271;28;20048;-65
2022/01/09 01:44:12;;;;;;;17.38;11.77;;;;;;;-1.35;63.04;98049.91;5086169;28;20047;-65
2022/01/09 01:46:44;;;;;;;17.73;12.70;;;;;;;-1.46;63.23;98048.50;5085959;28;20269;-66
2022/01/09 01:49:14;;;;;;;17.02;11.48;;;;;;;-1.47;62.89;98031.22;5085887;28;20201;-66
2022/01/09 01:51:44;;;;;;;17.65;11.60;;;;;;;-1.45;62.60;98026.81;5086062;28;20108;-65
2022/01/09 01:54:15;;;;;;;14.95;11.27;;;;;;;-1.43;62.82;98025.03;5085717;28;20083;-65
2022/01/09 01:56:45;;;;;;;15.50;10.35;;;;;;;-1.46;62.40;98022.53;5086128;28;20319;-65
2022/01/09 01:59:16;;;;;;;13.18;10.07;;;;;;;-1.50;62.18;98023.50;5086308;28;20029;-65
2022/01/09 02:01:45;;;;;;;14.63;10.52;;;;;;;-1.55;62.01;98014.97;5085780;28;20045;-65
2022/01/09 02:04:15;;;;;;;16.67;11.23;;;;;;;-1.68;61.94;98012.72;5085670;28;20040;-65
2022/01/09 02:06:46;;;;;;;15.50;10.88;;;;;;;-1.70;61.94;98006.72;5085650;28;20040;-65
2022/01/09 02:09:17;;;;;;;16.60;10.30;;;;;;;-1.62;61.68;98014.31;5085670;28;20243;-65
2022/01/09 02:11:46;;;;;;;14.63;9.63;;;;;;;-1.63;61.65;98007.41;5085801;28;20049;-65
2022/01/09 02:14:18;;;;;;;18.20;11.25;;;;;;;-1.66;61.78;98007.50;5085899;28;20040;-65
2022/01/09 02:16:48;;;;;;;16.00;10.02;;;;;;;-3.07;61.62;97768.25;5085572;28;20043;-65
2022/01/09 02:19:17;;;;;;;17.77;10.93;;;;;;;-1.61;61.57;97996.97;5085814;28;20048;-65
2022/01/09 02:21:49;;;;;;;13.55;9.68;;;;;;;-1.55;61.42;97989.84;5085844;28;20247;-65
2022/01/09 02:24:22;;;;;;;14.85;9.95;;;;;;;-1.56;61.58;97995.94;5085464;28;20040;-65
2022/01/09 02:26:54;;;;;;;17.27;11.82;;;;;;;-1.63;61.42;97986.63;5085699;28;20044;-65
2022/01/09 02:29:27;;;;;;;16.52;11.13;;;;;;;-1.62;61.44;97977.94;5085678;28;20103;-65
2022/01/09 02:31:59;;;;;;;15.20;11.00;;;;;;;-1.70;61.70;97975.56;5085226;28;20044;-65
2022/01/09 02:34:33;;;;;;;13.93;10.85;;;;;;;-1.71;61.63;97973.00;5085694;28;20040;-65
2022/01/09 02:37:07;;;;;;;15.40;10.90;;;;;;;-1.70;61.69;97970.34;5089095;28;20040;-64
2022/01/09 02:39:39;;;;;;;14.98;10.68;;;;;;;-1.77;61.92;97963.63;5089782;28;20247;-64
2022/01/09 02:42:18;;;;;;;19.75;11.27;;;;;;;-1.88;62.48;97964.81;5089608;28;20048;-65
2022/01/09 02:44:51;;;;;;;16.90;12.85;;;;;;;-2.07;62.61;97961.88;5089373;28;20045;-65
2022/01/09 02:47:25;;;;;;;17.92;11.60;;;;;;;-2.09;62.67;97958.47;5089671;28;20086;-65
2022/01/09 02:50:05;;;;;;;17.57;11.80;;;;;;;-2.18;63.35;97964.75;5089349;28;20040;-65
2022/01/09 02:52:50;;;;;;;18.17;13.02;;;;;;;-2.14;63.52;97942.16;5088983;28;20449;-65
2022/01/09 02:55:24;;;;;;;16.00;12.63;;;;;;;-2.25;63.65;97936.41;5089241;28;20048;-65
2022/01/09 02:57:59;;;;;;;16.60;11.93;;;;;;;-2.29;63.64;97927.84;5089503;28;20048;-65
2022/01/09 03:00:34;;;;;;;18.27;13.80;;;;;;;-2.35;63.84;97918.47;5089142;28;20040;-65
2022/01/09 03:03:06;;;;;;;;;;;;;;;-2.44;64.88;97913.53;5089635;28;20244;-65
2022/01/09 03:05:38;;;;;;;19.35;13.85;;;;;;;-2.47;64.30;97908.44;5089316;28;19966;-65
2022/01/09 03:08:12;;;;;;;21.05;14.32;;;;;;;-2.46;64.25;97902.34;5088961;28;20178;-64
2022/01/09 03:10:45;;;;;;;20.90;14.80;;;;;;;-2.57;64.86;97898.31;5089231;28;20048;-65
2022/01/09 03:13:17;;;;;;;20.73;13.68;;;;;;;-2.62;64.67;97886.34;5088743;28;20082;-65
2022/01/09 03:15:50;;;;;;;20.33;13.27;;;;;;;-2.58;64.99;97894.03;5089054;28;20048;-64
2022/01/09 03:18:22;;;;;;;20.52;14.27;;;;;;;-2.59;64.61;97892.34;5088969;28;20040;-65
2022/01/09 03:20:54;;;;;;;18.50;13.02;;;;;;;-2.59;64.86;97892.34;5088727;28;20078;-65
2022/01/09 03:23:28;;;;;;;22.58;13.88;;;;;;;-2.56;64.61;97893.09;5088708;28;20045;-64
2022/01/09 03:26:02;;;;;;;18.17;13.70;;;;;;;-2.54;64.73;97888.72;5088878;28;20041;-65
2022/01/09 03:28:34;;;;;;;20.25;14.38;;;;;;;-2.56;64.55;97887.06;5088601;28;20040;-65
2022/01/09 03:31:06;;;;;;;20.15;14.27;;;;;;;-2.59;64.58;97871.56;5088013;28;20048;-65
2022/01/09 03:33:39;;;;;;;20.77;13.27;;;;;;;-2.66;65.17;97882.13;5088626;28;20055;-65
2022/01/09 03:36:11;;;;;;;19.27;13.07;;;;;;;-2.64;64.44;97871.69;5088392;28;20044;-65
2022/01/09 03:38:44;;;;;;;20.92;14.35;;;;;;;-2.73;65.30;97875.38;5088652;28;20056;-65
2022/01/09 03:41:16;;;;;;;27.40;15.27;;;;;;;-2.78;65.80;97879.84;5088334;28;20094;-65
2022/01/09 03:43:49;;;;;;;19.02;13.07;;;;;;;-2.80;65.71;97883.34;5088594;28;20041;-65
2022/01/09 03:46:21;;;;;;;21.10;15.30;;;;;;;-2.93;66.00;97876.78;5088186;28;20045;-65
2022/01/09 03:48:53;;;;;;;23.70;15.40;;;;;;;-2.92;65.96;97858.59;5088172;28;20087;-65
2022/01/09 03:51:32;;;;;;;21.80;15.10;;;;;;;-2.87;66.03;97861.91;5088189;28;20044;-65
2022/01/09 03:54:06;;;;;;;22.17;15.43;;;;;;;-2.91;66.72;97856.84;5087836;28;20102;-65
2022/01/09 03:56:39;;;;;;;20.13;14.45;;;;;;;-2.93;66.45;97840.47;5088382;28;20082;-64
2022/01/09 03:59:11;;;;;;;21.10;15.32;;;;;;;-2.92;66.18;97835.25;5087910;28;20090;-65
2022/01/09 04:01:43;;;;;;;20.90;13.93;;;;;;;-2.86;65.80;97842.03;5087942;28;20082;-65
2022/01/09 04:04:15;;;;;;;23.10;17.02;;;;;;;-4.48;66.39;97592.25;5088199;28;20048;-65
2022/01/09 04:06:49;;;;;;;22.05;14.55;;;;;;;-2.81;66.42;97816.84;5088096;28;20346;-65
2022/01/09 04:09:29;;;;;;;22.00;14.75;;;;;;;-2.81;65.94;97822.03;5087832;28;20269;-65
2022/01/09 04:12:03;;;;;;;25.13;16.25;;;;;;;-2.77;65.78;97821.91;5087797;28;20232;-65
2022/01/09 04:14:35;;;;;;;22.13;14.15;;;;;;;-2.72;65.49;97814.84;5087675;28;20040;-65
2022/01/09 04:17:12;;;;;;;21.38;14.85;;;;;;;-4.40;66.09;97527.41;5088011;28;20259;-64
2022/01/09 04:19:45;;;;;;;24.27;17.67;;;;;;;-2.81;66.37;97809.06;5087670;28;20293;-65
2022/01/09 04:22:17;;;;;;;20.38;15.38;;;;;;;-2.76;65.89;97808.03;5087841;28;20106;-65
2022/01/09 04:24:51;;;;;;;21.33;16.08;;;;;;;-2.71;65.98;97808.78;5087555;28;20040;-65
2022/01/09 04:27:23;;;;;;;18.25;13.55;;;;;;;-2.69;65.88;97790.56;5087759;28;20048;-64
2022/01/09 04:29:55;;;;;;;18.90;13.93;;;;;;;-2.74;66.04;97806.25;5087714;28;20299;-65
2022/01/09 04:32:27;;;;;;;21.08;13.25;;;;;;;-2.70;65.74;97807.03;5087362;28;20090;-65
2022/01/09 04:35:00;;;;;;;21.13;15.23;;;;;;;-2.78;66.84;97804.63;5087252;28;20235;-65
2022/01/09 04:37:33;;;;;;;23.73;15.63;;;;;;;-2.79;66.45;97802.09;5087476;28;20052;-65
2022/01/09 04:40:12;;;;;;;21.00;14.43;;;;;;;-2.76;66.09;97796.81;5087540;28;20044;-65
2022/01/09 04:42:47;;;;;;;19.80;13.48;;;;;;;-4.03;65.76;97579.06;5087182;28;20086;-65
2022/01/09 04:45:21;;;;;;;20.20;14.95;;;;;;;-2.74;66.51;97795.03;5087450;28;20045;-65
2022/01/09 04:47:55;;;;;;;18.02;14.00;;;;;;;-2.74;66.20;97797.63;5087311;28;20040;-65
2022/01/09 04:50:30;;;;;;;20.90;15.38;;;;;;;-2.71;65.61;97787.16;5087296;28;20048;-65
2022/01/09 04:53:06;;;;;;;19.17;13.52;;;;;;;-2.72;65.80;97785.47;5086693;28;20121;-65
2022/01/09 04:55:45;;;;;;;16.92;12.00;;;;;;;-2.68;65.50;97779.31;5086919;28;20177;-65
2022/01/09 04:58:17;;;;;;;18.27;13.70;;;;;;;-2.67;65.53;97778.41;5086369;28;20086;-65
2022/01/09 05:00:50;;;;;;;19.65;14.63;;;;;;;-2.64;65.06;97768.81;5087070;28;20044;-65
2022/01/09 05:03:22;;;;;;;16.45;12.63;;;;;;;-2.67;65.72;97766.31;5086757;28;20251;-65
2022/01/09 05:05:54;;;;;;;17.33;13.10;;;;;;;-2.76;65.45;97768.28;5086964;28;20040;-66
2022/01/09 05:08:26;;;;;;;20.02;13.32;;;;;;;-2.83;65.34;97769.34;5086691;28;20093;-66
2022/01/09 05:10:59;;;;;;;19.33;13.05;;;;;;;-2.86;65.12;97757.31;5086644;28;20232;-65
2022/01/09 05:13:32;;;;;;;18.15;13.57;;;;;;;-2.85;65.78;97763.34;5086744;28;20106;-65
2022/01/09 05:16:04;;;;;;;19.33;13.75;;;;;;;-2.88;65.28;97764.28;5086779;28;20089;-65
2022/01/09 05:18:50;;;;;;;20.30;13.20;;;;;;;-2.92;65.53;97767.84;5086463;28;20090;-65
2022/01/09 05:21:22;;;;;;;17.95;13.15;;;;;;;-2.97;65.10;97767.13;5086357;28;20097;-65
2022/01/09 05:23:54;;;;;;;22.05;13.85;;;;;;;-2.94;65.50;97767.03;5086357;28;20044;-65
2022/01/09 05:26:28;;;;;;;18.95;13.30;;;;;;;-2.90;65.31;97768.66;5085789;28;20048;-65
2022/01/09 05:29:00;;;;;;;17.15;12.90;;;;;;;-2.95;65.43;97763.59;5086314;28;20247;-65
2022/01/09 05:31:32;;;;;;;18.98;13.63;;;;;;;-3.06;65.77;97765.63;5086480;28;20044;-64
2022/01/09 05:34:04;;;;;;;19.20;12.88;;;;;;;-3.31;65.59;97718.78;5086379;28;20048;-65
2022/01/09 05:36:37;;;;;;;19.73;14.90;;;;;;;-3.09;65.26;97759.69;5086131;28;20044;-64
2022/01/09 05:39:09;;;;;;;16.40;12.43;;;;;;;-3.01;65.21;97760.31;5086099;28;20090;-64
2022/01/09 05:41:44;;;;;;;19.88;14.57;;;;;;;-2.99;65.17;97761.97;5086283;28;20040;-64
2022/01/09 05:44:18;;;;;;;17.15;12.95;;;;;;;-2.90;64.68;97773.00;5085947;28;20106;-66
2022/01/09 05:46:50;;;;;;;18.58;14.93;;;;;;;-2.90;64.70;97771.25;5086005;28;20091;-66
2022/01/09 05:49:21;;;;;;;15.85;13.15;;;;;;;-2.88;64.95;97772.06;5086223;28;20037;-66
2022/01/09 05:51:51;;;;;;;19.77;13.63;;;;;;;-2.96;65.09;97766.25;5086143;28;20086;-66
2022/01/09 05:54:21;;;;;;;19.35;14.65;;;;;;;-3.21;65.13;97718.53;5085581;28;20072;-66
2022/01/09 05:56:53;;;;;;;19.08;13.63;;;;;;;-2.99;65.49;97769.75;5086119;28;20041;-66
2022/01/09 05:59:22;;;;;;;19.05;13.68;;;;;;;-3.00;65.34;97762.03;5085959;28;20044;-66
2022/01/09 06:01:52;;;;;;;21.77;16.30;;;;;;;-3.08;65.65;97758.78;5085998;28;20044;-66
2022/01/09 06:04:22;;;;;;;18.75;15.73;;;;;;;-3.06;65.67;97757.84;5085965;28;20111;-66
2022/01/09 06:06:54;;;;;;;18.30;13.05;;;;;;;-3.11;65.65;97754.53;5085689;28;20315;-66
2022/01/09 06:09:23;;;;;;;20.98;15.15;;;;;;;-3.14;65.85;97752.03;5085807;28;20040;-66
2022/01/09 06:11:54;;;;;;;19.90;13.57;;;;;;;-3.16;66.14;97743.44;5085034;28;20040;-66
2022/01/09 06:14:23;;;;;;;18.38;14.27;;;;;;;-3.24;66.61;97734.16;5085788;28;20040;-66
2022/01/09 06:16:53;;;;;;;21.30;15.52;;;;;;;-3.25;66.11;97730.72;5085820;28;20045;-66
2022/01/09 06:19:24;;;;;;;17.98;14.75;;;;;;;-3.23;66.46;97730.69;5085559;28;20225;-66
2022/01/09 06:21:54;;;;;;;17.55;12.88;;;;;;;-3.23;65.95;97722.91;5085529;28;20082;-66
2022/01/09 06:24:24;;;;;;;20.48;12.98;;;;;;;-3.23;65.58;97721.16;5085495;28;20072;-65
2022/01/09 06:26:56;;;;;;;21.27;13.70;;;;;;;-3.16;66.09;97738.25;5085465;28;20040;-66
2022/01/09 06:29:25;;;;;;;20.60;13.85;;;;;;;-3.21;66.04;97744.44;5085751;28;20036;-65
2022/01/09 06:31:55;;;;;;;20.05;14.38;;;;;;;-3.18;65.83;97734.84;5085344;28;20185;-66
2022/01/09 06:34:25;;;;;;;17.92;12.50;;;;;;;-3.13;65.82;97739.91;5085310;28;20041;-65
2022/01/09 06:36:55;;;;;;;17.38;12.77;;;;;;;-3.13;65.86;97742.50;5085304;28;20090;-65
2022/01/09 06:39:25;;;;;;;19.40;13.88;;;;;;;-3.19;65.85;97733.16;5085229;28;20098;-64
2022/01/09 06:41:57;;;;;;;20.33;14.20;;;;;;;-3.19;65.87;97740.91;5085291;28;20041;-65
2022/01/09 06:44:26;;;;;;;19.83;12.63;;;;;;;-3.20;66.22;97731.44;5085556;28;20307;-64
2022/01/09 06:46:56;;;;;;;21.85;15.00;;;;;;;-3.19;66.36;97730.56;5085424;28;20115;-66
2022/01/09 06:49:26;;;;;;;22.08;13.80;;;;;;;-3.11;65.79;97730.34;5085487;28;20040;-66
2022/01/09 06:51:57;;;;;;;20.30;14.60;;;;;;;-3.13;65.83;97733.00;5085411;28;20049;-66
2022/01/09 06:54:27;;;;;;;20.45;14.55;;;;;;;-3.10;65.64;97732.06;5084853;28;20060;-66
2022/01/09 06:56:59;;;;;;;19.08;13.32;;;;;;;-3.04;65.61;97735.34;5084945;28;20041;-65
2022/01/09 06:59:27;;;;;;;19.73;14.35;;;;;;;-3.08;65.81;97722.50;5085243;28;20075;-65
2022/01/09 07:01:58;;;;;;;19.35;13.32;;;;;;;-3.07;66.07;97735.41;5085079;28;20115;-66
2022/01/09 07:04:28;;;;;;;16.20;13.38;;;;;;;-3.06;65.95;97736.28;5085055;28;20047;-65
2022/01/09 07:06:58;;;;;;;23.13;14.73;;;;;;;-3.01;66.02;97737.84;5084982;28;20036;-65
2022/01/09 07:09:28;;;;;;;23.20;15.55;;;;;;;-3.07;65.83;97737.16;5085309;28;20257;-65
2022/01/09 07:12:00;;;;;;;23.17;14.70;;;;;;;-2.99;65.71;97749.03;5084988;28;20040;-65
2022/01/09 07:14:29;;;;;;;21.77;14.43;;;;;;;-2.90;65.61;97755.69;5085086;28;20041;-65
2022/01/09 07:16:59;;;;;;;20.20;13.10;;;;;;;-2.91;65.18;97759.19;5085239;28;20043;-65
2022/01/09 07:19:29;;;;;;;19.13;14.90;;;;;;;-2.84;65.09;97762.47;5085114;28;20095;-65
2022/01/09 07:22:00;;;;;;;16.67;13.55;;;;;;;-2.83;65.46;97769.34;5086256;28;20039;-65
2022/01/09 07:24:30;;;;;;;18.55;13.90;;;;;;;-2.85;65.48;97779.75;5088813;28;20208;-65
2022/01/09 07:27:01;;;;;;;17.67;13.65;;;;;;;-2.83;65.86;97775.38;5088687;28;20045;-65
2022/01/09 07:29:30;;;;;;;16.23;12.45;;;;;;;-2.80;65.30;97771.88;5088401;28;20040;-65
2022/01/09 07:32:01;;;;;;;16.08;12.48;;;;;;;-2.75;65.14;97782.97;5088433;28;20037;-65
2022/01/09 07:34:31;;;;;;;19.73;12.77;;;;;;;-2.73;64.92;97781.19;5088607;28;20052;-65
2022/01/09 07:37:01;;;;;;;20.90;13.85;;;;;;;-2.69;64.81;97775.00;5088306;28;20243;-65
2022/01/09 07:39:31;;;;;;;17.83;12.75;;;;;;;-2.69;65.09;97785.38;5088890;28;20075;-65
2022/01/09 07:42:04;;;;;;;19.38;13.30;;;;;;;-2.69;65.48;97782.78;5088283;28;20139;-65
2022/01/09 07:44:32;;;;;;;18.85;13.77;;;;;;;-2.65;65.10;97793.03;5088075;28;20048;-66
2022/01/09 07:47:02;;;;;;;21.15;12.82;;;;;;;-2.60;64.65;97795.50;5088225;28;20044;-66
2022/01/09 07:49:32;;;;;;;20.58;13.85;;;;;;;-2.56;64.74;97794.53;5088539;28;20249;-66
2022/01/09 07:52:03;;;;;;;18.42;13.23;;;;;;;-2.52;64.72;97792.69;5088122;28;20051;-65
2022/01/09 07:54:33;;;;;;;22.45;16.10;;;;;;;-2.55;64.83;97795.38;5087750;28;20060;-66
2022/01/09 07:57:05;;;;;;;17.73;13.25;;;;;;;-2.52;64.95;97788.38;5088071;28;20036;-65
2022/01/09 07:59:33;;;;;;;19.58;14.80;;;;;;;-2.46;64.57;97801.16;5087743;28;20049;-66
2022/01/09 08:02:04;;;;;;;21.73;15.23;;;;;;;-2.44;64.56;97801.97;5086824;28;20190;-66
2022/01/09 08:04:34;;;;;;;16.02;13.43;;;;;;;-2.50;65.15;97799.56;5087560;28;20043;-65
2022/01/09 08:07:05;;;;;;;20.67;14.48;;;;;;;-3.79;65.23;97590.53;5087620;28;20086;-66
2022/01/09 08:09:34;;;;;;;20.73;13.43;;;;;;;-2.50;65.40;97781.41;5087818;28;20045;-65
2022/01/09 08:12:10;;;;;;;23.02;15.00;;;;;;;-2.48;65.50;97779.59;5087725;28;20368;-65
2022/01/09 08:14:40;;;;;;;17.20;13.45;;;;;;;-2.46;65.32;97792.53;5087637;28;20304;-65
2022/01/09 08:17:10;;;;;;;19.45;14.35;;;;;;;-2.45;65.18;97776.94;5086548;28;20040;-65
2022/01/09 08:19:40;;;;;;;19.80;15.73;;;;;;;-2.47;65.16;97777.88;5087231;28;20047;-65
2022/01/09 08:22:10;;;;;;;21.83;14.48;;;;;;;-2.46;65.33;97780.41;5087331;28;20040;-66
2022/01/09 08:24:41;;;;;;;20.67;14.77;;;;;;;-2.43;65.23;97780.31;5087578;28;20036;-65
2022/01/09 08:27:12;;;;;;;19.05;14.05;;;;;;;-2.65;64.89;97753.28;5087230;28;20040;-66
2022/01/09 08:29:41;;;;;;;20.85;15.98;;;;;;;-2.39;65.31;97781.94;5087196;28;20036;-65
2022/01/09 08:32:13;;;;;;;18.30;15.13;;;;;;;-2.38;64.62;97783.63;5087158;28;20041;-66
2022/01/09 08:34:42;;;;;;;18.20;13.35;;;;;;;-2.39;64.63;97788.88;5086399;28;20108;-65
2022/01/09 08:37:12;;;;;;;18.23;14.05;;;;;;;-3.62;64.50;97576.25;5087249;28;20103;-66
2022/01/09 08:39:44;;;;;;;21.83;15.88;;;;;;;-2.34;64.88;97787.00;5087103;28;20285;-65
2022/01/09 08:42:14;;;;;;;24.88;15.27;;;;;;;-2.37;64.88;97785.34;5086851;28;20067;-65
2022/01/09 08:44:43;;;;;;;25.15;15.95;;;;;;;-2.43;65.36;97784.66;5086919;28;20044;-65
2022/01/09 08:47:13;;;;;;;23.42;15.38;;;;;;;-2.43;65.42;97782.91;5086843;28;20044;-65
2022/01/09 08:49:44;;;;;;;20.10;14.10;;;;;;;-2.36;65.29;97778.41;5086794;28;20036;-65
2022/01/09 08:52:13;;;;;;;20.40;16.10;;;;;;;-2.40;65.71;97775.06;5086705;28;20044;-65
2022/01/09 08:54:44;;;;;;;22.50;16.02;;;;;;;-2.36;65.39;97775.81;5086435;28;20178;-65
2022/01/09 08:57:15;;;;;;;20.88;15.60;;;;;;;-2.30;65.70;97784.28;5086858;28;20059;-65
2022/01/09 08:59:44;;;;;;;24.15;17.02;;;;;;;-2.30;66.29;97783.44;5086521;28;20040;-65
2022/01/09 09:02:14;;;;;;;21.00;16.13;;;;;;;-2.26;66.13;97792.81;5086528;28;20104;-66
2022/01/09 09:04:44;;;;;;;23.77;16.73;;;;;;;-2.33;65.98;97788.69;5086445;28;20078;-66
2022/01/09 09:07:18;;;;;;;23.20;16.27;;;;;;;-2.34;65.74;97790.44;5086336;28;20232;-65
2022/01/09 09:09:50;;;;;;;25.95;16.63;;;;;;;-2.28;66.01;97783.38;5086363;28;20044;-65
2022/01/09 09:12:24;;;;;;;23.27;17.10;;;;;;;-2.24;66.17;97785.00;5086253;28;20062;-65
2022/01/09 09:14:56;;;;;;;20.60;16.02;;;;;;;-2.20;65.91;97786.59;5086330;28;20339;-66
2022/01/09 09:17:29;;;;;;;21.52;15.85;;;;;;;-2.14;65.72;97809.78;5086388;28;20070;-66
2022/01/09 09:20:01;;;;;;;24.17;17.10;;;;;;;-2.15;66.61;97806.34;5086319;28;20044;-65
2022/01/09 09:22:35;;;;;;;21.95;16.95;;;;;;;-2.20;65.73;97821.19;5086124;28;20098;-66
2022/01/09 09:25:09;;;;;;;20.17;17.27;;;;;;;-2.17;66.06;97828.03;5086405;28;20082;-65
2022/01/09 09:27:42;;;;;;;24.38;18.17;;;;;;;-2.20;66.26;97828.97;5086184;28;20052;-66
2022/01/09 09:30:15;;;;;;;20.15;15.68;;;;;;;-2.17;66.12;97841.88;5086160;28;20082;-66
2022/01/09 09:32:48;;;;;;;23.80;16.65;;;;;;;-2.13;66.20;97840.03;5086259;28;20041;-66
2022/01/09 09:35:20;;;;;;;21.85;16.15;;;;;;;-2.09;66.06;97824.31;5086148;28;20094;-66
2022/01/09 09:37:53;;;;;;;25.08;16.55;;;;;;;-2.11;65.74;97840.84;5086254;28;20041;-65
2022/01/09 09:40:26;;;;;;;21.35;15.00;;;;;;;-2.07;66.16;97838.13;5086160;28;20089;-66
2022/01/09 09:42:59;;;;;;;23.08;16.27;;;;;;;-2.02;66.06;97835.38;5086128;28;20040;-66
2022/01/09 09:45:32;;;;;;;20.65;14.73;;;;;;;-1.99;65.62;97841.34;5085655;28;20044;-65
2022/01/09 09:48:05;;;;;;;25.00;17.25;;;;;;;-2.05;65.81;97838.91;5085814;28;20094;-65
2022/01/09 09:50:38;;;;;;;22.95;15.95;;;;;;;-2.07;66.11;97842.47;5085732;28;20358;-65
2022/01/09 09:53:10;;;;;;;22.65;18.45;;;;;;;-2.02;65.71;97837.97;5085360;28;20052;-66
2022/01/09 09:55:44;;;;;;;22.73;15.27;;;;;;;-1.94;65.36;97843.81;5085288;28;20041;-66
2022/01/09 09:58:18;;;;;;;20.83;15.07;;;;;;;-1.96;65.79;97832.63;5085592;28;20361;-65
2022/01/09 10:00:54;;;;;;;19.83;15.57;;;;;;;-1.97;65.49;97857.72;5085718;28;20169;-65
2022/01/09 10:03:30;;;;;;;22.80;16.77;;;;;;;-1.95;66.04;97823.06;5085492;28;20085;-65
2022/01/09 10:06:03;;;;;;;23.05;16.80;;;;;;;-1.90;65.62;97865.34;5085720;28;20086;-66
2022/01/09 10:08:37;;;;;;;26.13;17.85;;;;;;;-1.90;66.02;97816.00;5085757;28;20289;-65
2022/01/09 10:11:14;;;;;;;21.30;16.67;;;;;;;-1.84;65.71;97873.81;5085410;28;20089;-65
2022/01/09 10:14:10;;;;;;;22.15;16.60;;;;;;;-1.84;66.07;97815.81;5085473;28;20085;-65
2022/01/09 10:16:43;;;;;;;19.30;15.45;;;;;;;-1.84;65.61;97840.03;5085356;28;20315;-65
2022/01/09 10:19:15;;;;;;;21.58;15.70;;;;;;;-1.83;65.50;97820.97;5085412;28;20040;-65
2022/01/09 10:21:49;;;;;;;22.13;16.85;;;;;;;-3.00;65.07;97630.69;5085579;28;20062;-65
2022/01/09 10:24:21;;;;;;;23.63;17.07;;;;;;;-1.76;65.59;97827.69;5085687;28;20044;-66
2022/01/09 10:26:53;;;;;;;21.73;16.50;;;;;;;-1.79;65.82;97830.38;5085622;28;20048;-65
2022/01/09 10:29:31;;;;;;;22.58;17.55;;;;;;;-1.76;66.19;97837.22;5085589;28;20048;-65
2022/01/09 10:32:16;;;;;;;23.73;15.60;;;;;;;-1.72;65.42;97831.88;5085593;28;20041;-66
2022/01/09 10:35:08;;;;;;;20.88;15.65;;;;;;;-1.68;65.67;97832.63;5085347;28;20041;-65
2022/01/09 10:37:42;;;;;;;19.00;14.13;;;;;;;-1.65;64.84;97838.59;5085337;28;20089;-66
2022/01/09 10:40:21;;;;;;;23.75;16.45;;;;;;;-1.59;64.98;97853.16;5085187;28;20101;-65
2022/01/09 10:43:05;;;;;;;22.40;15.30;;;;;;;-1.68;65.23;97843.88;5085458;28;20044;-65
2022/01/09 10:45:40;;;;;;;24.90;15.98;;;;;;;-1.67;64.83;97836.94;5085419;28;20048;-65
2022/01/09 10:48:17;;;;;;;21.08;15.38;;;;;;;-1.57;65.00;97840.97;5085369;28;20044;-65
2022/01/09 10:50:51;;;;;;;20.60;15.02;;;;;;;-1.55;64.48;97840.91;5085040;28;20040;-65
2022/01/09 10:53:26;;;;;;;22.15;14.80;;;;;;;-1.63;64.42;97824.69;5085001;28;20060;-65
2022/01/09 10:56:11;;;;;;;22.75;15.75;;;;;;;-1.57;64.63;97832.31;5084853;28;20090;-65
2022/01/09 10:58:45;;;;;;;21.67;14.73;;;;;;;-1.55;64.28;97828.78;5089313;28;20247;-66
2022/01/09 11:01:24;;;;;;;23.45;15.35;;;;;;;-1.47;64.83;97833.72;5089355;28;20106;-66
2022/01/09 11:03:58;;;;;;;23.88;15.43;;;;;;;-1.39;64.30;97837.78;5089020;28;20045;-65
2022/01/09 11:06:32;;;;;;;24.63;17.30;;;;;;;-1.32;64.10;97846.25;5089113;28;20050;-66
2022/01/09 11:09:06;;;;;;;23.30;15.88;;;;;;;-1.28;64.44;97847.84;5089016;28;20045;-66
2022/01/09 11:11:40;;;;;;;24.35;16.88;;;;;;;-1.25;64.17;97849.50;5088794;28;20041;-66
2022/01/09 11:14:17;;;;;;;22.15;16.63;;;;;;;-1.21;64.44;97844.16;5088358;28;20045;-66
2022/01/09 11:16:53;;;;;;;24.35;16.40;;;;;;;-1.37;64.27;97815.19;5088210;28;20342;-66
2022/01/09 11:19:26;;;;;;;24.15;16.77;;;;;;;-1.15;63.85;97835.31;5088429;28;20041;-66
2022/01/09 11:22:01;;;;;;;21.05;15.68;;;;;;;-1.14;64.19;97837.84;5088523;28;20048;-66
2022/01/09 11:25:12;;;;;;;22.55;14.73;;;;;;;-1.07;63.97;97828.94;5088474;28;20044;-65
2022/01/09 11:27:52;;;;;;;18.48;14.55;;;;;;;-1.11;63.99;97840.34;5087842;28;20041;-65
2022/01/09 11:30:34;;;;;;;19.65;14.50;;;;;;;-1.06;63.86;97824.59;5088525;28;20041;-65
2022/01/09 11:33:23;;;;;;;21.10;15.00;;;;;;;-1.04;63.95;97830.59;5088229;28;20246;-65
2022/01/09 11:36:07;;;;;;;18.20;13.50;;;;;;;-1.01;64.15;97825.31;5088193;28;20044;-65
2022/01/09 11:38:52;;;;;;;22.60;15.45;;;;;;;-1.09;64.28;97840.31;5088349;28;20114;-65
2022/01/09 11:41:26;;;;;;;20.10;14.45;;;;;;;-1.32;64.02;97786.47;5088355;28;20044;-65